Time;durP1;ratioP1;P1;durP2;ratioP2;P2;SDS_P1;SDS_P2;PMS_P1;PMS_P2;Temp;Humidity;BMP_temperature;BMP_pressure;BME280_temperature;BME280_humidity;BME280_pressure;Samples;Min_cycle;Max_cycle;Signal;HPM_P1;HPM_P2
2023/08/31 00:01:05;;;;;;;1.48;1.30;;;;;;;;;;6189388;23;20467;-90
2023/08/31 00:03:31;;;;;;;2.00;1.33;;;;;;;;;;6189388;23;20021;-90
2023/08/31 00:05:57;;;;;;;2.40;1.30;;;;;;;;;;6214669;23;20016;-90
2023/08/31 00:08:24;;;;;;;2.60;1.30;;;;;;;;;;6189039;23;20016;-90
2023/08/31 00:11:00;;;;;;;2.35;1.35;;;;;;;;;;6189413;23;20313;-90
2023/08/31 00:13:28;;;;;;;;;;;;;;;;;;6190212;23;20048;-89
2023/08/31 00:15:57;;;;;;;2.78;1.23;;;;;;;;;;6189101;23;20276;-88
2023/08/31 00:18:24;;;;;;;3.00;1.65;;;;;;;;;;6189673;23;20012;-88
2023/08/31 00:20:53;;;;;;;4.47;2.05;;;;;;;;;;6214764;23;20017;-88
2023/08/31 00:23:19;;;;;;;4.80;1.63;;;;;;;;;;6189426;23;20456;-87
2023/08/31 00:25:52;;;;;;;5.10;1.77;;;;;;;;;;6214444;23;20027;-88
2023/08/31 00:28:18;;;;;;;2.95;1.83;;;;;;;;;;6216352;23;20023;-87
2023/08/31 00:30:45;;;;;;;5.05;1.50;;;;;;;;;;6215771;23;20475;-88
2023/08/31 00:33:11;;;;;;;2.17;1.35;;;;;;;;;;6189325;23;20024;-88
2023/08/31 00:35:49;;;;;;;2.38;1.58;;;;;;;;;;6189443;23;20012;-88
2023/08/31 00:38:15;;;;;;;3.13;1.50;;;;;;;;;;6213870;23;20019;-87
2023/08/31 00:40:50;;;;;;;4.03;1.85;;;;;;;;;;6215043;23;20020;-87
2023/08/31 00:43:17;;;;;;;4.30;2.00;;;;;;;;;;6214236;23;20088;-87
2023/08/31 00:45:44;;;;;;;2.85;1.88;;;;;;;;;;6189439;23;20023;-87
2023/08/31 00:48:18;;;;;;;3.25;1.88;;;;;;;;;;6189349;23;20077;-87
2023/08/31 00:50:47;;;;;;;4.50;1.80;;;;;;;;;;6194486;23;20016;-87
2023/08/31 00:53:14;;;;;;;4.13;1.73;;;;;;;;;;6191824;23;20504;-87
2023/08/31 00:55:41;;;;;;;2.97;1.70;;;;;;;;;;6215311;23;20017;-88
2023/08/31 00:58:07;;;;;;;4.97;2.28;;;;;;;;;;6189490;23;20023;-88
2023/08/31 01:00:40;;;;;;;3.63;1.70;;;;;;;;;;6189636;23;20371;-87
2023/08/31 01:03:14;;;;;;;3.80;1.50;;;;;;;;;;6189696;23;20028;-88
2023/08/31 01:06:02;;;;;;;2.83;1.75;;;;;;;;;;6190185;23;20066;-87
2023/08/31 01:08:47;;;;;;;2.78;1.58;;;;;;;;;;6189091;23;20075;-87
2023/08/31 01:11:35;;;;;;;3.60;2.00;;;;;;;;;;6189785;23;20021;-87
2023/08/31 01:14:04;;;;;;;4.07;1.73;;;;;;;;;;6189087;23;20047;-87
2023/08/31 01:16:32;;;;;;;3.72;1.92;;;;;;;;;;6189044;23;20027;-87
2023/08/31 01:18:59;;;;;;;5.43;2.63;;;;;;;;;;6188601;23;20105;-87
2023/08/31 01:21:30;;;;;;;3.10;1.73;;;;;;;;;;6188382;23;20019;-87
2023/08/31 01:23:58;;;;;;;3.30;1.88;;;;;;;;;;6213829;23;20021;-87
2023/08/31 01:26:24;;;;;;;4.97;2.08;;;;;;;;;;6214441;23;20128;-87
2023/08/31 01:28:51;;;;;;;3.05;1.88;;;;;;;;;;6189328;23;20344;-87
2023/08/31 01:31:17;;;;;;;4.45;1.85;;;;;;;;;;6214125;23;20017;-86
2023/08/31 01:33:44;;;;;;;4.15;1.85;;;;;;;;;;6189712;23;20027;-87
2023/08/31 01:36:20;;;;;;;2.58;1.80;;;;;;;;;;6189098;23;20012;-87
2023/08/31 01:38:51;;;;;;;4.43;2.15;;;;;;;;;;6215164;23;20052;-87
2023/08/31 01:41:18;;;;;;;4.07;1.92;;;;;;;;;;6189672;23;20030;-86
2023/08/31 01:43:47;;;;;;;3.75;1.80;;;;;;;;;;6216115;23;20079;-86
2023/08/31 01:46:13;;;;;;;2.42;1.80;;;;;;;;;;6190870;23;20016;-87
2023/08/31 01:48:42;;;;;;;4.22;1.95;;;;;;;;;;6190949;23;20387;-87
2023/08/31 01:51:09;;;;;;;3.15;1.80;;;;;;;;;;6217419;23;20464;-86
2023/08/31 01:53:38;;;;;;;3.83;1.85;;;;;;;;;;6191381;23;20035;-87
2023/08/31 01:56:05;;;;;;;3.30;2.05;;;;;;;;;;6215838;23;20021;-87
2023/08/31 01:58:31;;;;;;;2.95;1.77;;;;;;;;;;6190716;23;20017;-87
2023/08/31 02:00:57;;;;;;;5.22;2.13;;;;;;;;;;6192590;23;20317;-87
2023/08/31 02:03:23;;;;;;;2.40;1.77;;;;;;;;;;6191505;23;20021;-87
2023/08/31 02:05:53;;;;;;;3.15;1.60;;;;;;;;;;6216887;23;20016;-88
2023/08/31 02:08:22;;;;;;;2.40;1.70;;;;;;;;;;6215896;23;20012;-87
2023/08/31 02:10:48;;;;;;;3.25;1.70;;;;;;;;;;6215654;23;20017;-88
2023/08/31 02:13:15;;;;;;;2.95;1.52;;;;;;;;;;6215632;23;20027;-88
2023/08/31 02:15:42;;;;;;;4.07;1.90;;;;;;;;;;6216131;23;20019;-89
2023/08/31 02:18:10;;;;;;;3.75;2.10;;;;;;;;;;6190271;23;20021;-89
2023/08/31 02:20:37;;;;;;;5.40;2.00;;;;;;;;;;6189244;23;20444;-89
2023/08/31 02:23:03;;;;;;;4.50;1.90;;;;;;;;;;6190475;23;20066;-89
2023/08/31 02:25:29;;;;;;;3.72;2.05;;;;;;;;;;6215553;23;20017;-88
2023/08/31 02:27:56;;;;;;;4.20;1.75;;;;;;;;;;6216533;23;20020;-88
2023/08/31 02:30:22;;;;;;;3.45;2.10;;;;;;;;;;6190300;23;20445;-87
2023/08/31 02:32:48;;;;;;;2.92;1.65;;;;;;;;;;6190362;23;20013;-88
2023/08/31 02:35:18;;;;;;;2.55;1.77;;;;;;;;;;6190683;23;20017;-87
2023/08/31 02:37:50;;;;;;;2.80;1.60;;;;;;;;;;6190428;23;20012;-88
2023/08/31 02:40:17;;;;;;;2.60;2.05;;;;;;;;;;6190076;23;20017;-88
2023/08/31 02:42:43;;;;;;;3.40;2.10;;;;;;;;;;6190456;23;20143;-88
2023/08/31 02:45:16;;;;;;;3.20;1.70;;;;;;;;;;6192827;23;20031;-88
2023/08/31 02:47:42;;;;;;;4.18;2.05;;;;;;;;;;6215463;23;20021;-87
2023/08/31 02:50:10;;;;;;;2.88;1.70;;;;;;;;;;6215762;23;20028;-87
2023/08/31 02:52:40;;;;;;;3.22;1.90;;;;;;;;;;6190961;23;20039;-88
2023/08/31 02:55:06;;;;;;;3.25;1.60;;;;;;;;;;6191624;23;20079;-87
2023/08/31 02:57:35;;;;;;;4.65;2.58;;;;;;;;;;6227917;23;20017;-87
2023/08/31 03:00:08;;;;;;;4.68;2.05;;;;;;;;;;6206737;23;20463;-87
2023/08/31 03:02:36;;;;;;;3.65;1.95;;;;;;;;;;6196192;23;20024;-87
2023/08/31 03:05:05;;;;;;;4.25;1.90;;;;;;;;;;6191428;23;20016;-87
2023/08/31 03:07:31;;;;;;;3.15;1.92;;;;;;;;;;6190390;23;20087;-87
2023/08/31 03:09:57;;;;;;;2.80;1.80;;;;;;;;;;6216738;23;20063;-87
2023/08/31 03:12:24;;;;;;;3.30;1.83;;;;;;;;;;6190624;23;20020;-87
2023/08/31 03:14:50;;;;;;;3.65;2.00;;;;;;;;;;6215451;23;20336;-88
2023/08/31 03:17:16;;;;;;;4.75;2.47;;;;;;;;;;6190388;23;20013;-88
2023/08/31 03:19:42;;;;;;;4.13;1.90;;;;;;;;;;6190469;23;20017;-88
2023/08/31 03:22:11;;;;;;;3.67;2.00;;;;;;;;;;6190297;23;20017;-88
2023/08/31 03:24:40;;;;;;;4.60;2.20;;;;;;;;;;6215723;23;20091;-88
2023/08/31 03:27:08;;;;;;;4.65;2.00;;;;;;;;;;6190265;23;20016;-88
2023/08/31 03:29:35;;;;;;;3.50;2.00;;;;;;;;;;6189507;23;20025;-87
2023/08/31 03:32:01;;;;;;;2.20;1.80;;;;;;;;;;6190684;23;20016;-87
2023/08/31 03:34:31;;;;;;;5.03;2.35;;;;;;;;;;6189976;23;20020;-88
2023/08/31 03:36:57;;;;;;;3.75;2.45;;;;;;;;;;6189984;23;20348;-87
2023/08/31 03:39:24;;;;;;;5.20;2.10;;;;;;;;;;6214799;23;20016;-87
2023/08/31 03:41:50;;;;;;;2.65;2.10;;;;;;;;;;6214947;23;20028;-87
2023/08/31 03:44:17;;;;;;;3.50;2.20;;;;;;;;;;6190526;23;20016;-87
2023/08/31 03:46:43;;;;;;;4.20;2.20;;;;;;;;;;6190597;23;20013;-87
2023/08/31 03:49:12;;;;;;;3.88;2.13;;;;;;;;;;6214563;23;20021;-87
2023/08/31 03:51:38;;;;;;;3.70;2.00;;;;;;;;;;6214639;23;20028;-87
2023/08/31 03:54:05;;;;;;;4.50;2.40;;;;;;;;;;6214685;23;20020;-87
2023/08/31 03:56:34;;;;;;;3.28;1.90;;;;;;;;;;6189851;23;20017;-87
2023/08/31 03:59:04;;;;;;;6.60;1.90;;;;;;;;;;6190522;23;20146;-87
2023/08/31 04:01:30;;;;;;;2.40;1.95;;;;;;;;;;6189749;23;20067;-87
2023/08/31 04:03:56;;;;;;;3.35;2.10;;;;;;;;;;6214957;23;20013;-87
2023/08/31 04:06:23;;;;;;;5.35;2.13;;;;;;;;;;6189386;23;20021;-87
2023/08/31 04:08:55;;;;;;;6.38;2.10;;;;;;;;;;6214791;23;20067;-87
2023/08/31 04:11:21;;;;;;;5.60;2.60;;;;;;;;;;6189811;23;20024;-87
2023/08/31 04:13:50;;;;;;;2.90;2.15;;;;;;;;;;6214643;23;20017;-87
2023/08/31 04:16:19;;;;;;;3.65;1.92;;;;;;;;;;6189457;23;20013;-87
2023/08/31 04:18:51;;;;;;;3.63;2.15;;;;;;;;;;6190453;23;20066;-87
2023/08/31 04:21:18;;;;;;;5.57;2.40;;;;;;;;;;6189556;23;20348;-87
2023/08/31 04:23:45;;;;;;;6.47;2.20;;;;;;;;;;6189263;23;20012;-87
2023/08/31 04:26:17;;;;;;;3.75;1.75;;;;;;;;;;6214440;23;20023;-87
2023/08/31 04:28:49;;;;;;;4.93;1.90;;;;;;;;;;6214727;23;20100;-87
2023/08/31 04:31:15;;;;;;;4.00;1.85;;;;;;;;;;6215231;23;20017;-87
2023/08/31 04:33:41;;;;;;;5.47;2.22;;;;;;;;;;6214640;23;20414;-86
2023/08/31 04:36:07;;;;;;;5.05;2.42;;;;;;;;;;6189336;23;20020;-87
2023/08/31 04:38:38;;;;;;;4.93;2.40;;;;;;;;;;6188913;23;20021;-86
2023/08/31 04:41:04;;;;;;;5.13;2.15;;;;;;;;;;6189247;23;20020;-86
2023/08/31 04:43:31;;;;;;;3.83;2.13;;;;;;;;;;6188864;23;20499;-87
2023/08/31 04:45:57;;;;;;;8.43;2.25;;;;;;;;;;6189007;23;20460;-87
2023/08/31 04:48:23;;;;;;;4.40;2.13;;;;;;;;;;6189203;23;20099;-86
2023/08/31 04:50:49;;;;;;;4.20;1.88;;;;;;;;;;6213708;23;20337;-86
2023/08/31 04:53:16;;;;;;;4.18;2.15;;;;;;;;;;6213923;23;20017;-86
2023/08/31 04:55:42;;;;;;;4.38;2.40;;;;;;;;;;6188953;23;20020;-86
2023/08/31 04:58:08;;;;;;;5.68;2.45;;;;;;;;;;6188868;23;20448;-87
2023/08/31 05:00:34;;;;;;;5.93;2.70;;;;;;;;;;6190241;23;20051;-86
2023/08/31 05:03:00;;;;;;;6.47;2.60;;;;;;;;;;6195344;23;20072;-87
2023/08/31 05:05:26;;;;;;;5.30;2.33;;;;;;;;;;6193026;23;20012;-86
2023/08/31 05:07:52;;;;;;;5.43;2.33;;;;;;;;;;6190054;23;20336;-87
2023/08/31 05:10:19;;;;;;;4.75;2.50;;;;;;;;;;6214180;23;20017;-87
2023/08/31 05:12:47;;;;;;;5.30;2.63;;;;;;;;;;6214301;23;20196;-87
2023/08/31 05:15:13;;;;;;;4.55;2.28;;;;;;;;;;6213955;23;20094;-87
2023/08/31 05:17:40;;;;;;;4.88;2.30;;;;;;;;;;6188930;23;20020;-87
2023/08/31 05:20:08;;;;;;;4.60;2.53;;;;;;;;;;6188926;23;20344;-87
2023/08/31 05:22:36;;;;;;;8.82;2.90;;;;;;;;;;6214155;23;20028;-87
2023/08/31 05:25:04;;;;;;;4.40;2.33;;;;;;;;;;6216370;23;20033;-87
2023/08/31 05:27:30;;;;;;;4.82;2.50;;;;;;;;;;6189684;23;20056;-87
2023/08/31 05:29:56;;;;;;;4.68;2.65;;;;;;;;;;6190281;23;20030;-86
2023/08/31 05:32:28;;;;;;;4.95;2.38;;;;;;;;;;6215780;23;20440;-88
2023/08/31 05:34:54;;;;;;;5.28;3.05;;;;;;;;;;6214271;23;20075;-86
2023/08/31 05:37:20;;;;;;;5.03;2.50;;;;;;;;;;6189047;23;20019;-86
2023/08/31 05:39:52;;;;;;;5.85;2.22;;;;;;;;;;6213981;23;20421;-86
2023/08/31 05:42:22;;;;;;;3.97;2.33;;;;;;;;;;6189132;23;20021;-86
2023/08/31 05:44:48;;;;;;;5.05;2.30;;;;;;;;;;6213862;23;20467;-86
2023/08/31 05:47:17;;;;;;;3.38;2.15;;;;;;;;;;6214133;23;20017;-87
2023/08/31 05:49:43;;;;;;;4.40;2.20;;;;;;;;;;6188495;23;20024;-86
2023/08/31 05:52:10;;;;;;;3.00;2.13;;;;;;;;;;6188643;23;20016;-86
2023/08/31 05:54:36;;;;;;;3.38;2.05;;;;;;;;;;6188402;23;20078;-86
2023/08/31 05:57:05;;;;;;;3.38;2.15;;;;;;;;;;6188750;23;20024;-86
2023/08/31 05:59:31;;;;;;;3.75;2.20;;;;;;;;;;6214246;23;20521;-85
2023/08/31 06:01:57;;;;;;;3.65;2.20;;;;;;;;;;6213673;23;20035;-85
2023/08/31 06:04:24;;;;;;;4.15;1.90;;;;;;;;;;6188345;23;20020;-86
2023/08/31 06:06:53;;;;;;;4.00;2.13;;;;;;;;;;6188991;23;20019;-85
2023/08/31 06:09:20;;;;;;;4.97;2.13;;;;;;;;;;6189142;23;20052;-85
2023/08/31 06:11:46;;;;;;;4.50;2.30;;;;;;;;;;6214029;23;20016;-85
2023/08/31 06:14:12;;;;;;;4.80;1.83;;;;;;;;;;6209850;23;20429;-85
2023/08/31 06:16:39;;;;;;;5.53;2.38;;;;;;;;;;6213635;23;20016;-85
2023/08/31 06:19:10;;;;;;;3.85;2.00;;;;;;;;;;6214250;23;20379;-85
2023/08/31 06:21:39;;;;;;;2.75;1.83;;;;;;;;;;6188674;23;20025;-85
2023/08/31 06:24:08;;;;;;;3.92;2.00;;;;;;;;;;6188595;23;20448;-85
2023/08/31 06:26:34;;;;;;;3.67;2.10;;;;;;;;;;6212614;23;20071;-84
2023/08/31 06:29:01;;;;;;;4.45;1.83;;;;;;;;;;6213593;23;20452;-84
2023/08/31 06:31:27;;;;;;;5.50;2.00;;;;;;;;;;6190008;23;20017;-84
2023/08/31 06:33:53;;;;;;;4.25;1.75;;;;;;;;;;6189624;23;20456;-84
2023/08/31 06:36:19;;;;;;;3.08;2.00;;;;;;;;;;6214500;23;20412;-85
2023/08/31 06:38:45;;;;;;;4.10;1.70;;;;;;;;;;6190452;23;20028;-85
2023/08/31 06:41:11;;;;;;;4.82;2.10;;;;;;;;;;6191117;23;20388;-85
2023/08/31 06:43:41;;;;;;;4.32;1.67;;;;;;;;;;6216169;23;20401;-85
2023/08/31 06:46:07;;;;;;;4.13;1.70;;;;;;;;;;6215752;23;20492;-86
2023/08/31 06:48:33;;;;;;;5.22;1.90;;;;;;;;;;6189996;23;20059;-84
2023/08/31 06:51:08;;;;;;;6.30;1.95;;;;;;;;;;6190890;23;20035;-85
2023/08/31 06:53:34;;;;;;;4.63;2.00;;;;;;;;;;6215246;23;20016;-84
2023/08/31 06:56:30;;;;;;;2.65;1.60;;;;;;;;;;6190071;23;20108;-84
2023/08/31 06:58:56;;;;;;;4.75;1.80;;;;;;;;;;6214617;23;20067;-85
2023/08/31 07:01:22;;;;;;;3.03;1.58;;;;;;;;;;6214822;23;20016;-84
2023/08/31 07:03:48;;;;;;;5.03;1.70;;;;;;;;;;6215043;23;20479;-84
2023/08/31 07:06:15;;;;;;;2.60;1.38;;;;;;;;;;6189018;23;20017;-84
2023/08/31 07:08:45;;;;;;;3.40;1.50;;;;;;;;;;6223036;23;20016;-85
2023/08/31 07:11:11;;;;;;;3.70;1.70;;;;;;;;;;6219424;23;20044;-85
2023/08/31 07:13:40;;;;;;;2.17;1.38;;;;;;;;;;6191338;23;20456;-84
2023/08/31 07:16:09;;;;;;;2.78;1.65;;;;;;;;;;6215995;23;20016;-85
2023/08/31 07:18:41;;;;;;;2.42;1.60;;;;;;;;;;6215381;23;20020;-84
2023/08/31 07:21:10;;;;;;;2.58;1.60;;;;;;;;;;6192076;23;20016;-85
2023/08/31 07:23:37;;;;;;;1.88;1.50;;;;;;;;;;6216749;23;20102;-85
2023/08/31 07:26:09;;;;;;;5.15;1.90;;;;;;;;;;6191487;23;20012;-85
2023/08/31 07:28:45;;;;;;;3.22;1.50;;;;;;;;;;6179649;23;20024;-84
2023/08/31 07:31:19;;;;;;;2.17;1.30;;;;;;;;;;6191787;23;20044;-85
2023/08/31 07:33:48;;;;;;;2.50;1.20;;;;;;;;;;6191677;23;20104;-85
2023/08/31 07:36:17;;;;;;;3.15;1.50;;;;;;;;;;6191520;23;20096;-85
2023/08/31 07:38:48;;;;;;;3.17;1.58;;;;;;;;;;6192117;23;20098;-84
2023/08/31 07:41:18;;;;;;;6.20;1.55;;;;;;;;;;6191926;23;20079;-85
2023/08/31 07:43:48;;;;;;;1.40;1.20;;;;;;;;;;6192377;23;20019;-85
2023/08/31 07:46:15;;;;;;;2.75;1.50;;;;;;;;;;6191515;23;20020;-85
2023/08/31 07:48:42;;;;;;;2.45;1.25;;;;;;;;;;6191336;23;20013;-85
2023/08/31 07:51:16;;;;;;;2.30;1.25;;;;;;;;;;6191475;23;20027;-84
2023/08/31 07:53:42;;;;;;;2.92;1.48;;;;;;;;;;6216075;23;20023;-85
2023/08/31 07:56:17;;;;;;;1.30;1.20;;;;;;;;;;6189841;23;20397;-85
2023/08/31 07:58:46;;;;;;;1.70;1.20;;;;;;;;;;6186937;23;20063;-85
2023/08/31 08:01:12;;;;;;;1.92;1.20;;;;;;;;;;6189777;23;20471;-85
2023/08/31 08:03:38;;;;;;;3.17;1.70;;;;;;;;;;6213429;23;20016;-85
2023/08/31 08:06:08;;;;;;;1.48;1.25;;;;;;;;;;6188740;23;20023;-85
2023/08/31 08:08:34;;;;;;;2.45;1.50;;;;;;;;;;6190692;23;20016;-85
2023/08/31 08:11:02;;;;;;;3.10;1.50;;;;;;;;;;6189342;23;20024;-85
2023/08/31 08:13:28;;;;;;;1.92;1.40;;;;;;;;;;6189387;23;20025;-84
2023/08/31 08:15:54;;;;;;;2.80;1.35;;;;;;;;;;6189351;23;20012;-84
2023/08/31 08:18:23;;;;;;;3.72;1.42;;;;;;;;;;6189746;23;20016;-84
2023/08/31 08:20:51;;;;;;;3.65;1.60;;;;;;;;;;6215216;23;20512;-84
2023/08/31 08:23:17;;;;;;;3.20;1.60;;;;;;;;;;6215010;23;20028;-85
2023/08/31 08:25:43;;;;;;;4.13;1.45;;;;;;;;;;6190171;23;20102;-85
2023/08/31 08:28:12;;;;;;;3.03;1.40;;;;;;;;;;6190648;23;20023;-85
2023/08/31 08:30:41;;;;;;;3.70;1.60;;;;;;;;;;6216264;23;20444;-84
2023/08/31 08:33:08;;;;;;;4.10;1.67;;;;;;;;;;6214381;23;20336;-85
2023/08/31 08:35:37;;;;;;;4.78;1.50;;;;;;;;;;6189346;23;20019;-84
2023/08/31 08:38:05;;;;;;;4.30;1.70;;;;;;;;;;6189153;23;20020;-85
2023/08/31 08:40:32;;;;;;;2.30;1.60;;;;;;;;;;6188463;23;20021;-84
2023/08/31 08:43:00;;;;;;;8.30;2.15;;;;;;;;;;6189163;23;20466;-85
2023/08/31 08:45:40;;;;;;;;;;;;;;;;;;;;;
2023/08/31 08:48:38;;;;;;;4.80;1.70;;;;;;;;;;6154302;23;20137;-91
2023/08/31 08:51:22;;;;;;;3.65;1.60;;;;;;;;;;6132627;23;20056;-89
2023/08/31 08:53:51;;;;;;;4.03;1.60;;;;;;;;;;6132712;23;20029;-89
2023/08/31 08:56:20;;;;;;;4.30;1.63;;;;;;;;;;6129929;23;20028;-89
2023/08/31 08:58:53;;;;;;;3.38;1.60;;;;;;;;;;6128860;23;20038;-88
2023/08/31 09:01:22;;;;;;;3.33;1.67;;;;;;;;;;6129595;23;20097;-88
2023/08/31 09:03:51;;;;;;;3.47;1.75;;;;;;;;;;6129117;23;20029;-88
2023/08/31 09:06:18;;;;;;;3.08;1.40;;;;;;;;;;6128388;23;20013;-88
2023/08/31 09:08:44;;;;;;;2.60;1.83;;;;;;;;;;6129190;23;20021;-88
2023/08/31 09:11:22;;;;;;;4.47;1.70;;;;;;;;;;6129399;23;20327;-87
2023/08/31 09:13:48;;;;;;;3.20;1.92;;;;;;;;;;6133051;23;20353;-87
2023/08/31 09:16:28;;;;;;;5.10;1.90;;;;;;;;;;6130733;23;20028;-87
2023/08/31 09:18:55;;;;;;;2.25;1.70;;;;;;;;;;6169054;23;20020;-86
2023/08/31 09:21:21;;;;;;;3.15;1.60;;;;;;;;;;6189306;23;20017;-86
2023/08/31 09:23:58;;;;;;;4.32;1.70;;;;;;;;;;6189693;23;20028;-86
2023/08/31 09:26:27;;;;;;;4.20;1.92;;;;;;;;;;6189722;23;20030;-86
2023/08/31 09:28:58;;;;;;;4.05;1.52;;;;;;;;;;6186138;23;20095;-87
2023/08/31 09:31:36;;;;;;;2.95;1.60;;;;;;;;;;6190409;23;20079;-86
2023/08/31 09:34:05;;;;;;;5.38;1.80;;;;;;;;;;6214639;23;20099;-86
2023/08/31 09:36:41;;;;;;;5.18;2.00;;;;;;;;;;6213993;23;20349;-86
2023/08/31 09:39:15;;;;;;;4.00;1.98;;;;;;;;;;6188377;23;20059;-86
2023/08/31 09:41:54;;;;;;;3.80;1.77;;;;;;;;;;6214257;23;20051;-86
2023/08/31 09:44:20;;;;;;;2.28;1.40;;;;;;;;;;6189394;23;20405;-85
2023/08/31 09:46:49;;;;;;;5.70;1.40;;;;;;;;;;6188888;23;20016;-85
2023/08/31 09:49:16;;;;;;;1.40;1.27;;;;;;;;;;6188694;23;20024;-85
2023/08/31 09:51:45;;;;;;;2.33;1.60;;;;;;;;;;6188017;23;20023;-85
2023/08/31 09:54:15;;;;;;;2.22;1.40;;;;;;;;;;6188724;23;20015;-85
2023/08/31 09:56:50;;;;;;;2.15;1.42;;;;;;;;;;6189162;23;20051;-86
2023/08/31 09:59:17;;;;;;;3.17;1.52;;;;;;;;;;6214180;23;20052;-86
2023/08/31 10:01:46;;;;;;;4.93;1.90;;;;;;;;;;6213724;23;20035;-85
2023/08/31 10:04:18;;;;;;;2.40;1.58;;;;;;;;;;6189801;23;20013;-85
2023/08/31 10:06:44;;;;;;;2.65;1.65;;;;;;;;;;6215009;23;20359;-86
2023/08/31 10:09:11;;;;;;;6.40;2.45;;;;;;;;;;6215699;23;20066;-86
2023/08/31 10:11:39;;;;;;;5.43;2.00;;;;;;;;;;6215131;23;20116;-86
2023/08/31 10:14:05;;;;;;;4.78;1.70;;;;;;;;;;6188958;23;20100;-86
2023/08/31 10:16:32;;;;;;;1.98;1.70;;;;;;;;;;6216086;23;20317;-85
2023/08/31 10:19:16;;;;;;;3.20;2.00;;;;;;;;;;6189641;23;20361;-86
2023/08/31 10:21:51;;;;;;;5.32;2.15;;;;;;;;;;6213223;23;20017;-86
2023/08/31 10:24:17;;;;;;;3.58;1.60;;;;;;;;;;6215960;23;20101;-86
2023/08/31 10:26:43;;;;;;;3.05;1.60;;;;;;;;;;6215553;23;20120;-86
2023/08/31 10:29:26;;;;;;;2.05;1.52;;;;;;;;;;6190817;23;20063;-86
2023/08/31 10:31:53;;;;;;;3.00;1.52;;;;;;;;;;6190218;23;20024;-86
2023/08/31 10:34:34;;;;;;;2.47;1.65;;;;;;;;;;6201446;23;20016;-85
2023/08/31 10:37:03;;;;;;;3.72;1.67;;;;;;;;;;6201749;23;20016;-86
2023/08/31 10:39:40;;;;;;;1.85;1.30;;;;;;;;;;6219415;23;20016;-87
2023/08/31 10:42:06;;;;;;;8.98;1.77;;;;;;;;;;6192533;23;20036;-87
2023/08/31 10:44:32;;;;;;;3.22;1.60;;;;;;;;;;6216143;23;20017;-86
2023/08/31 10:47:04;;;;;;;3.17;1.60;;;;;;;;;;6216129;23;20063;-87
2023/08/31 10:49:32;;;;;;;3.65;1.63;;;;;;;;;;6215983;23;20141;-87
2023/08/31 10:52:16;;;;;;;3.47;1.50;;;;;;;;;;6189732;23;20368;-86
2023/08/31 10:54:42;;;;;;;4.25;2.13;;;;;;;;;;6216182;23;20328;-86
2023/08/31 10:57:11;;;;;;;3.38;1.75;;;;;;;;;;6215695;23;20317;-87
2023/08/31 10:59:53;;;;;;;2.47;1.80;;;;;;;;;;6216656;23;20016;-87
2023/08/31 11:02:31;;;;;;;3.05;1.50;;;;;;;;;;6190211;23;20104;-87
2023/08/31 11:05:16;;;;;;;3.65;1.60;;;;;;;;;;6190179;23;20476;-86
2023/08/31 11:07:47;;;;;;;8.35;2.00;;;;;;;;;;6215137;23;20376;-86
2023/08/31 11:10:26;;;;;;;3.78;1.60;;;;;;;;;;6215521;23;20046;-86
2023/08/31 11:12:54;;;;;;;7.85;2.25;;;;;;;;;;6215233;23;20332;-86
2023/08/31 11:15:25;;;;;;;4.53;1.70;;;;;;;;;;6190858;23;20012;-87
2023/08/31 11:17:51;;;;;;;4.75;1.95;;;;;;;;;;6198110;23;20021;-87
2023/08/31 11:20:22;;;;;;;4.40;1.75;;;;;;;;;;6192753;23;20462;-87
2023/08/31 11:22:49;;;;;;;4.70;1.90;;;;;;;;;;6190907;23;20017;-87
2023/08/31 11:25:17;;;;;;;3.10;1.70;;;;;;;;;;6216427;23;20293;-87
2023/08/31 11:27:44;;;;;;;5.07;1.75;;;;;;;;;;6215137;23;20016;-87
2023/08/31 11:30:15;;;;;;;4.28;1.98;;;;;;;;;;6215762;23;20017;-86
2023/08/31 11:32:53;;;;;;;3.40;1.83;;;;;;;;;;6218499;23;20348;-87
2023/08/31 11:35:20;;;;;;;2.75;1.70;;;;;;;;;;6217021;23;20031;-86
2023/08/31 11:37:50;;;;;;;3.78;2.00;;;;;;;;;;6218618;23;20456;-87
2023/08/31 11:40:16;;;;;;;3.20;1.60;;;;;;;;;;6216207;23;20017;-86
2023/08/31 11:42:42;;;;;;;8.02;2.15;;;;;;;;;;6216040;23;20149;-87
2023/08/31 11:45:10;;;;;;;4.57;1.75;;;;;;;;;;6216503;23;20016;-86
2023/08/31 11:47:36;;;;;;;4.32;1.67;;;;;;;;;;6190809;23;20083;-88
2023/08/31 11:50:04;;;;;;;3.00;1.88;;;;;;;;;;6216428;23;20095;-87
2023/08/31 11:52:33;;;;;;;4.43;1.80;;;;;;;;;;6190980;23;20391;-86
2023/08/31 11:54:59;;;;;;;4.30;2.00;;;;;;;;;;6192252;23;20387;-87
2023/08/31 11:57:28;;;;;;;3.85;1.98;;;;;;;;;;6217883;23;20340;-87
2023/08/31 11:59:58;;;;;;;3.88;2.00;;;;;;;;;;6215662;23;20056;-86
2023/08/31 12:02:24;;;;;;;3.60;1.75;;;;;;;;;;6216537;23;20472;-87
2023/08/31 12:04:50;;;;;;;4.43;1.90;;;;;;;;;;6215233;23;20095;-86
2023/08/31 12:07:17;;;;;;;4.63;2.15;;;;;;;;;;6190124;23;20056;-87
2023/08/31 12:09:47;;;;;;;5.95;1.80;;;;;;;;;;6190083;23;20016;-86
2023/08/31 12:12:16;;;;;;;4.28;1.77;;;;;;;;;;6214600;23;20016;-87
2023/08/31 12:14:43;;;;;;;1.58;1.35;;;;;;;;;;6217293;23;20463;-86
2023/08/31 12:17:10;;;;;;;4.75;1.70;;;;;;;;;;6218937;23;20013;-86
2023/08/31 12:19:39;;;;;;;4.47;1.77;;;;;;;;;;6221762;23;20020;-87
2023/08/31 12:22:12;;;;;;;4.65;1.90;;;;;;;;;;6189345;23;20063;-86
2023/08/31 12:24:41;;;;;;;7.72;1.80;;;;;;;;;;6217261;23;20044;-87
2023/08/31 12:27:08;;;;;;;4.95;1.85;;;;;;;;;;6216018;23;20044;-87
2023/08/31 12:29:34;;;;;;;4.60;1.90;;;;;;;;;;6215492;23;20021;-86
2023/08/31 12:32:00;;;;;;;2.55;1.55;;;;;;;;;;6214837;23;20016;-86
2023/08/31 12:34:26;;;;;;;4.95;1.90;;;;;;;;;;6214560;23;20027;-86
2023/08/31 12:36:52;;;;;;;3.70;1.80;;;;;;;;;;6215426;23;20013;-86
2023/08/31 12:39:19;;;;;;;3.47;1.90;;;;;;;;;;6216354;23;20043;-86
2023/08/31 12:41:45;;;;;;;4.45;1.90;;;;;;;;;;6216569;23;20039;-87
2023/08/31 12:44:11;;;;;;;9.82;2.28;;;;;;;;;;6190148;23;20017;-87
2023/08/31 12:46:39;;;;;;;4.95;1.80;;;;;;;;;;6190767;23;20450;-86
2023/08/31 12:49:05;;;;;;;4.28;2.05;;;;;;;;;;6217577;23;20016;-86
2023/08/31 12:51:31;;;;;;;6.65;2.03;;;;;;;;;;6216402;23;20048;-87
2023/08/31 12:53:58;;;;;;;4.90;1.92;;;;;;;;;;6216759;23;20048;-86
2023/08/31 12:56:24;;;;;;;2.80;1.70;;;;;;;;;;6216639;23;20016;-86
2023/08/31 12:58:53;;;;;;;4.95;2.03;;;;;;;;;;6215688;23;20019;-86
2023/08/31 13:01:20;;;;;;;4.40;1.95;;;;;;;;;;6216417;23;20442;-88
2023/08/31 13:03:47;;;;;;;3.08;1.98;;;;;;;;;;6215896;23;20317;-87
2023/08/31 13:06:13;;;;;;;4.40;1.55;;;;;;;;;;6215976;23;20020;-87
2023/08/31 13:08:39;;;;;;;4.50;1.58;;;;;;;;;;6216394;23;20503;-87
2023/08/31 13:11:06;;;;;;;3.17;1.77;;;;;;;;;;6191119;23;20025;-86
2023/08/31 13:13:33;;;;;;;3.35;1.58;;;;;;;;;;6214231;23;20017;-87
2023/08/31 13:16:02;;;;;;;2.88;1.88;;;;;;;;;;6190514;23;20021;-86
2023/08/31 13:18:29;;;;;;;3.05;1.70;;;;;;;;;;6216874;23;20071;-84
2023/08/31 13:20:55;;;;;;;9.02;2.03;;;;;;;;;;6188925;23;20102;-85
2023/08/31 13:23:24;;;;;;;3.30;1.60;;;;;;;;;;6215070;23;20023;-86
2023/08/31 13:25:51;;;;;;;3.42;1.58;;;;;;;;;;6217478;23;20083;-85
2023/08/31 13:28:17;;;;;;;3.80;1.80;;;;;;;;;;6223284;23;20020;-86
2023/08/31 13:30:46;;;;;;;2.80;1.70;;;;;;;;;;6214435;23;20016;-85
2023/08/31 13:33:12;;;;;;;3.80;1.85;;;;;;;;;;6213596;23;20028;-85
2023/08/31 13:35:38;;;;;;;4.18;1.83;;;;;;;;;;6188427;23;20023;-84
2023/08/31 13:38:07;;;;;;;3.60;2.00;;;;;;;;;;6189590;23;20067;-85
2023/08/31 13:40:36;;;;;;;4.65;1.95;;;;;;;;;;6214797;23;20016;-84
2023/08/31 13:43:05;;;;;;;5.18;1.80;;;;;;;;;;6189915;23;20059;-85
2023/08/31 13:45:31;;;;;;;3.20;1.60;;;;;;;;;;6215784;23;20464;-86
2023/08/31 13:48:00;;;;;;;3.60;1.83;;;;;;;;;;6191854;23;20027;-86
2023/08/31 13:50:27;;;;;;;6.25;1.85;;;;;;;;;;6215971;23;20096;-86
2023/08/31 13:52:54;;;;;;;2.03;1.40;;;;;;;;;;6215924;23;20013;-86
2023/08/31 13:55:20;;;;;;;4.88;2.05;;;;;;;;;;6222773;23;20092;-86
2023/08/31 13:57:46;;;;;;;5.72;2.30;;;;;;;;;;6198532;23;20021;-86
2023/08/31 14:00:12;;;;;;;3.13;2.10;;;;;;;;;;6198949;23;20024;-86
2023/08/31 14:02:39;;;;;;;3.72;1.48;;;;;;;;;;6218070;23;20043;-86
2023/08/31 14:05:09;;;;;;;3.40;2.03;;;;;;;;;;6191961;23;20349;-86
2023/08/31 14:07:36;;;;;;;5.53;1.85;;;;;;;;;;6218120;23;20022;-85
2023/08/31 14:10:05;;;;;;;3.53;1.77;;;;;;;;;;6216060;23;20019;-86
2023/08/31 14:12:31;;;;;;;5.22;1.77;;;;;;;;;;6216295;23;20039;-86
2023/08/31 14:14:57;;;;;;;3.40;1.50;;;;;;;;;;6191115;23;20055;-86
2023/08/31 14:17:24;;;;;;;2.97;1.60;;;;;;;;;;6217794;23;20024;-86
2023/08/31 14:19:50;;;;;;;3.88;1.90;;;;;;;;;;6217558;23;20447;-86
2023/08/31 14:22:16;;;;;;;13.93;2.55;;;;;;;;;;6217371;23;20024;-85
2023/08/31 14:24:42;;;;;;;3.65;1.90;;;;;;;;;;6216091;23;20016;-85
2023/08/31 14:27:08;;;;;;;4.57;1.92;;;;;;;;;;6190435;23;20016;-86
2023/08/31 14:29:35;;;;;;;6.13;2.05;;;;;;;;;;6190705;23;20052;-86
2023/08/31 14:32:02;;;;;;;5.82;1.90;;;;;;;;;;6216817;23;20066;-86
2023/08/31 14:34:28;;;;;;;2.75;1.70;;;;;;;;;;6215010;23;20032;-86
2023/08/31 14:36:57;;;;;;;3.35;1.60;;;;;;;;;;6215465;23;20016;-85
2023/08/31 14:39:29;;;;;;;4.32;1.90;;;;;;;;;;6189327;23;20016;-85
2023/08/31 14:41:55;;;;;;;2.42;1.50;;;;;;;;;;6214905;23;20094;-85
2023/08/31 14:44:21;;;;;;;5.75;1.88;;;;;;;;;;6189716;23;20013;-85
2023/08/31 14:46:47;;;;;;;6.20;1.70;;;;;;;;;;6214890;23;20017;-85
2023/08/31 14:49:14;;;;;;;2.97;1.90;;;;;;;;;;6189251;23;20021;-85
2023/08/31 14:51:41;;;;;;;5.13;1.80;;;;;;;;;;6216493;23;20067;-85